Time;durP1;ratioP1;P1;durP2;ratioP2;P2;SDS_P1;SDS_P2;PMS_P1;PMS_P2;Temp;Humidity;BMP_temperature;BMP_pressure;BME280_temperature;BME280_humidity;BME280_pressure;Samples;Min_cycle;Max_cycle;Signal;HPM_P1;HPM_P2
2021/05/20 00:01:29;;;;;;;1.23;0.47;;;;;;;;;;4991295;28;20085;-71
2021/05/20 00:03:55;;;;;;;0.75;0.60;;;;;;;;;;4975309;28;20096;-70
2021/05/20 00:06:22;;;;;;;0.82;0.82;;;;;;;;;;4992071;28;20078;-70
2021/05/20 00:08:49;;;;;;;1.20;0.70;;;;;;;;;;4991093;28;20186;-70
2021/05/20 00:11:15;;;;;;;1.23;0.68;;;;;;;;;;4992433;28;20406;-70
2021/05/20 00:13:42;;;;;;;2.90;1.00;;;;;;;;;;4995667;28;20057;-70
2021/05/20 00:16:08;;;;;;;2.17;0.75;;;;;;;;;;4996094;28;20104;-70
2021/05/20 00:18:35;;;;;;;0.65;0.65;;;;;;;;;;4996333;28;20054;-70
2021/05/20 00:21:01;;;;;;;0.93;0.60;;;;;;;;;;4996155;28;20051;-71
2021/05/20 00:23:28;;;;;;;0.77;0.43;;;;;;;;;;4995127;28;20050;-70
2021/05/20 00:25:55;;;;;;;1.67;0.68;;;;;;;;;;4995848;28;20046;-70
2021/05/20 00:28:21;;;;;;;0.88;0.40;;;;;;;;;;4994862;28;20472;-71
2021/05/20 00:30:48;;;;;;;2.90;0.65;;;;;;;;;;4994972;28;20096;-70
2021/05/20 00:33:15;;;;;;;1.52;0.55;;;;;;;;;;4994869;28;20046;-70
2021/05/20 00:35:41;;;;;;;0.82;0.60;;;;;;;;;;4995837;28;20101;-70
2021/05/20 00:38:09;;;;;;;1.27;0.47;;;;;;;;;;4995835;28;20055;-71
2021/05/20 00:40:36;;;;;;;1.95;0.60;;;;;;;;;;4994702;28;20050;-71
2021/05/20 00:43:03;;;;;;;2.28;0.60;;;;;;;;;;4994644;28;20084;-70
2021/05/20 00:45:29;;;;;;;1.40;0.77;;;;;;;;;;4995718;28;20047;-70
2021/05/20 00:47:56;;;;;;;2.75;0.60;;;;;;;;;;4995650;28;20090;-70
2021/05/20 00:50:22;;;;;;;1.35;0.52;;;;;;;;;;4994432;28;20054;-70
2021/05/20 00:52:49;;;;;;;2.15;0.65;;;;;;;;;;4994477;28;20093;-70
2021/05/20 00:55:19;;;;;;;0.85;0.77;;;;;;;;;;4995714;28;20092;-70
2021/05/20 00:57:45;;;;;;;0.98;0.60;;;;;;;;;;4995383;28;20555;-70
2021/05/20 01:00:13;;;;;;;4.97;0.80;;;;;;;;;;4978297;28;20050;-70
2021/05/20 01:02:40;;;;;;;1.30;0.63;;;;;;;;;;4995456;28;20050;-70
2021/05/20 01:05:12;;;;;;;0.73;0.73;;;;;;;;;;4994334;28;20108;-70
2021/05/20 01:07:39;;;;;;;1.02;0.63;;;;;;;;;;4994071;28;20085;-70
2021/05/20 01:10:06;;;;;;;0.52;0.52;;;;;;;;;;4994165;28;20497;-70
2021/05/20 01:12:34;;;;;;;1.17;0.63;;;;;;;;;;4978339;28;20473;-70
2021/05/20 01:15:00;;;;;;;1.13;0.68;;;;;;;;;;4995090;28;20481;-70
2021/05/20 01:17:27;;;;;;;1.27;0.50;;;;;;;;;;4993894;28;20424;-70
2021/05/20 01:19:54;;;;;;;1.92;0.70;;;;;;;;;;4977876;28;20495;-70
2021/05/20 01:22:21;;;;;;;1.15;0.90;;;;;;;;;;4993940;28;20057;-70
2021/05/20 01:24:48;;;;;;;1.13;0.60;;;;;;;;;;4993536;28;20050;-70
2021/05/20 01:27:15;;;;;;;0.60;0.60;;;;;;;;;;4994803;28;20050;-70
2021/05/20 01:29:43;;;;;;;0.65;0.60;;;;;;;;;;4993823;28;20494;-71
2021/05/20 01:32:10;;;;;;;1.17;0.70;;;;;;;;;;4977859;28;20468;-70
2021/05/20 01:34:37;;;;;;;0.50;0.50;;;;;;;;;;4977707;28;20050;-70
2021/05/20 01:37:06;;;;;;;4.50;0.60;;;;;;;;;;4977405;28;20101;-70
2021/05/20 01:39:33;;;;;;;1.05;0.70;;;;;;;;;;4977587;28;20108;-70
2021/05/20 01:41:59;;;;;;;0.93;0.55;;;;;;;;;;4977407;28;20055;-70
2021/05/20 01:44:26;;;;;;;1.25;0.80;;;;;;;;;;4993716;28;20046;-71
2021/05/20 01:46:53;;;;;;;2.78;0.55;;;;;;;;;;4993248;28;20058;-70
2021/05/20 01:49:19;;;;;;;0.70;0.70;;;;;;;;;;4993340;28;20054;-70
2021/05/20 01:51:46;;;;;;;1.48;0.50;;;;;;;;;;4994537;28;20085;-70
2021/05/20 01:54:12;;;;;;;0.90;0.63;;;;;;;;;;4994532;28;20478;-70
2021/05/20 01:56:40;;;;;;;0.93;0.60;;;;;;;;;;4994404;28;20078;-70
2021/05/20 01:59:07;;;;;;;1.25;1.10;;;;;;;;;;4994271;28;20105;-70
2021/05/20 02:01:34;;;;;;;2.15;0.57;;;;;;;;;;4977314;28;20058;-70
2021/05/20 02:04:01;;;;;;;0.60;0.60;;;;;;;;;;4993108;28;20054;-70
2021/05/20 02:06:28;;;;;;;1.20;0.70;;;;;;;;;;4992793;28;20097;-71
2021/05/20 02:08:55;;;;;;;1.35;0.60;;;;;;;;;;4993027;28;20488;-70
2021/05/20 02:11:21;;;;;;;0.70;0.60;;;;;;;;;;4976921;28;20118;-70
2021/05/20 02:13:48;;;;;;;1.58;0.75;;;;;;;;;;4992870;28;20088;-71
2021/05/20 02:16:14;;;;;;;1.27;0.73;;;;;;;;;;4992737;28;20105;-71
2021/05/20 02:18:41;;;;;;;2.13;0.70;;;;;;;;;;4994050;28;20054;-70
2021/05/20 02:21:08;;;;;;;1.48;0.70;;;;;;;;;;4992922;28;20741;-70
2021/05/20 02:23:35;;;;;;;2.17;0.98;;;;;;;;;;4992987;28;20523;-70
2021/05/20 02:26:01;;;;;;;1.17;0.70;;;;;;;;;;4992670;28;20465;-70
2021/05/20 02:28:28;;;;;;;2.35;0.70;;;;;;;;;;4992919;28;20108;-70
2021/05/20 02:30:54;;;;;;;2.80;0.70;;;;;;;;;;4993805;28;20429;-70
2021/05/20 02:33:21;;;;;;;0.50;0.50;;;;;;;;;;4992364;28;20563;-70
2021/05/20 02:35:48;;;;;;;1.27;0.85;;;;;;;;;;4991474;28;20057;-70
2021/05/20 02:38:14;;;;;;;1.05;0.70;;;;;;;;;;4992648;28;20054;-70
2021/05/20 02:40:41;;;;;;;1.25;0.90;;;;;;;;;;4993680;28;20472;-70
2021/05/20 02:43:08;;;;;;;2.47;0.90;;;;;;;;;;4976437;28;20058;-70
2021/05/20 02:45:34;;;;;;;2.55;1.00;;;;;;;;;;4993316;28;20086;-70
2021/05/20 02:48:01;;;;;;;1.95;0.90;;;;;;;;;;4993836;28;20505;-70
2021/05/20 02:50:27;;;;;;;1.40;0.80;;;;;;;;;;5017554;22;20039;-70
2021/05/20 02:52:54;;;;;;;1.42;0.70;;;;;;;;;;4993654;28;20082;-69
2021/05/20 02:55:23;;;;;;;1.67;0.80;;;;;;;;;;4994315;28;20469;-69
2021/05/20 02:57:59;;;;;;;1.50;0.80;;;;;;;;;;4993901;28;20054;-69
2021/05/20 03:00:34;;;;;;;1.42;0.80;;;;;;;;;;4994377;28;20553;-69
2021/05/20 03:03:01;;;;;;;2.22;0.85;;;;;;;;;;5010204;28;20096;-69
2021/05/20 03:05:30;;;;;;;1.48;0.65;;;;;;;;;;5012491;28;20041;-69
2021/05/20 03:07:57;;;;;;;1.67;0.85;;;;;;;;;;4996496;28;20104;-69
2021/05/20 03:10:23;;;;;;;3.33;0.93;;;;;;;;;;5012611;28;20099;-68
2021/05/20 03:12:50;;;;;;;1.35;0.73;;;;;;;;;;5013554;28;20085;-69
2021/05/20 03:15:16;;;;;;;1.80;0.95;;;;;;;;;;5013784;28;20081;-69
2021/05/20 03:17:43;;;;;;;2.28;0.95;;;;;;;;;;5013398;28;20050;-69
2021/05/20 03:20:10;;;;;;;1.42;0.70;;;;;;;;;;5013199;28;20108;-69
2021/05/20 03:22:37;;;;;;;1.85;0.93;;;;;;;;;;5013215;28;20054;-69
2021/05/20 03:25:04;;;;;;;2.17;0.80;;;;;;;;;;4995444;28;20509;-69
2021/05/20 03:27:31;;;;;;;0.88;0.60;;;;;;;;;;4993562;28;20559;-69
2021/05/20 03:30:06;;;;;;;1.20;0.70;;;;;;;;;;4993345;28;20061;-69
2021/05/20 03:32:33;;;;;;;1.88;0.80;;;;;;;;;;4993891;28;20050;-69
2021/05/20 03:34:59;;;;;;;1.00;0.90;;;;;;;;;;4993853;28;20078;-69
2021/05/20 03:37:26;;;;;;;3.85;0.95;;;;;;;;;;5010773;28;20080;-69
2021/05/20 03:39:52;;;;;;;4.40;0.85;;;;;;;;;;5012687;28;20086;-69
2021/05/20 03:42:19;;;;;;;1.90;1.15;;;;;;;;;;5013266;28;20476;-69
2021/05/20 03:44:46;;;;;;;1.00;0.90;;;;;;;;;;5012918;28;20057;-69
2021/05/20 03:47:13;;;;;;;1.42;0.73;;;;;;;;;;5011762;28;20468;-69
2021/05/20 03:49:39;;;;;;;2.60;1.40;;;;;;;;;;4993258;28;20073;-69
2021/05/20 03:52:06;;;;;;;2.65;0.80;;;;;;;;;;4993350;28;20050;-69
2021/05/20 03:54:39;;;;;;;1.90;0.73;;;;;;;;;;4993512;28;20108;-69
2021/05/20 03:57:06;;;;;;;2.33;0.85;;;;;;;;;;4993125;28;20058;-69
2021/05/20 03:59:32;;;;;;;2.15;0.63;;;;;;;;;;5005333;28;20046;-68
2021/05/20 04:01:59;;;;;;;1.52;0.77;;;;;;;;;;5012611;28;20054;-68
2021/05/20 04:04:25;;;;;;;1.35;0.88;;;;;;;;;;5012721;28;20050;-69
2021/05/20 04:06:52;;;;;;;0.60;0.60;;;;;;;;;;5012408;28;20046;-69
2021/05/20 04:09:19;;;;;;;0.75;0.70;;;;;;;;;;5003075;28;20058;-69
2021/05/20 04:11:45;;;;;;;1.92;0.75;;;;;;;;;;4993166;28;20054;-69
2021/05/20 04:14:12;;;;;;;1.83;0.95;;;;;;;;;;4993274;28;20050;-69
2021/05/20 04:16:38;;;;;;;1.70;1.00;;;;;;;;;;4993396;28;20394;-69
2021/05/20 04:19:05;;;;;;;1.52;0.52;;;;;;;;;;4992790;28;20501;-69
2021/05/20 04:21:33;;;;;;;1.55;0.90;;;;;;;;;;5004363;28;20050;-69
2021/05/20 04:24:00;;;;;;;1.13;0.73;;;;;;;;;;5012361;28;20053;-69
2021/05/20 04:26:27;;;;;;;2.17;0.70;;;;;;;;;;5012497;28;20054;-68
2021/05/20 04:28:54;;;;;;;2.50;0.70;;;;;;;;;;5012763;28;20050;-69
2021/05/20 04:31:21;;;;;;;0.60;0.60;;;;;;;;;;5011685;28;20057;-69
2021/05/20 04:33:47;;;;;;;1.40;0.90;;;;;;;;;;5012695;28;20496;-68
2021/05/20 04:36:14;;;;;;;1.40;1.30;;;;;;;;;;5012398;28;20116;-68
2021/05/20 04:38:40;;;;;;;3.50;0.90;;;;;;;;;;5012599;28;20108;-69
2021/05/20 04:41:07;;;;;;;1.90;1.00;;;;;;;;;;5012170;28;20093;-68
2021/05/20 04:43:34;;;;;;;1.35;0.88;;;;;;;;;;5012416;28;20508;-69
2021/05/20 04:46:00;;;;;;;1.48;0.88;;;;;;;;;;5012357;28;20543;-69
2021/05/20 04:48:27;;;;;;;1.45;1.00;;;;;;;;;;5012288;28;20081;-68
2021/05/20 04:50:56;;;;;;;1.13;0.88;;;;;;;;;;5007961;28;20082;-69
2021/05/20 04:53:24;;;;;;;2.22;0.80;;;;;;;;;;4991189;28;20085;-70
2021/05/20 04:55:51;;;;;;;3.60;0.90;;;;;;;;;;4992077;28;20074;-68
2021/05/20 04:58:17;;;;;;;0.80;0.70;;;;;;;;;;4993534;28;20513;-69
2021/05/20 05:00:44;;;;;;;1.90;0.90;;;;;;;;;;4998094;28;20097;-69
2021/05/20 05:03:10;;;;;;;0.65;0.60;;;;;;;;;;4995100;28;20090;-69
2021/05/20 05:05:37;;;;;;;2.03;0.70;;;;;;;;;;4996207;28;20528;-69
2021/05/20 05:08:04;;;;;;;1.70;1.20;;;;;;;;;;4996360;28;20054;-69
2021/05/20 05:10:31;;;;;;;0.70;0.70;;;;;;;;;;5006743;28;20129;-69
2021/05/20 05:12:57;;;;;;;1.15;1.10;;;;;;;;;;5000929;28;20105;-69
2021/05/20 05:15:24;;;;;;;3.03;0.85;;;;;;;;;;5007331;28;20096;-67
2021/05/20 05:17:51;;;;;;;2.95;0.70;;;;;;;;;;4996470;28;20108;-68
2021/05/20 05:20:19;;;;;;;1.73;0.77;;;;;;;;;;5014338;28;20080;-69
2021/05/20 05:22:46;;;;;;;1.02;0.68;;;;;;;;;;5001262;28;20061;-69
2021/05/20 05:25:13;;;;;;;0.63;0.60;;;;;;;;;;4996761;28;20050;-69
2021/05/20 05:27:40;;;;;;;1.67;0.90;;;;;;;;;;4997653;28;20116;-69
2021/05/20 05:30:07;;;;;;;1.83;1.67;;;;;;;;;;4995563;28;20469;-69
2021/05/20 05:32:34;;;;;;;1.58;1.00;;;;;;;;;;4995714;28;20113;-70
2021/05/20 05:35:00;;;;;;;4.43;1.45;;;;;;;;;;4995263;28;20120;-70
2021/05/20 05:37:27;;;;;;;2.72;0.90;;;;;;;;;;5009922;28;20050;-70
2021/05/20 05:39:54;;;;;;;1.67;0.95;;;;;;;;;;4994839;28;20402;-70
2021/05/20 05:42:21;;;;;;;2.08;1.48;;;;;;;;;;4993999;28;20054;-70
2021/05/20 05:44:47;;;;;;;2.03;1.20;;;;;;;;;;4994877;28;20092;-70
2021/05/20 05:47:14;;;;;;;1.67;1.10;;;;;;;;;;4994699;28;20106;-70
2021/05/20 05:49:44;;;;;;;0.90;0.80;;;;;;;;;;4994713;28;20054;-70
2021/05/20 05:52:17;;;;;;;1.38;1.10;;;;;;;;;;4994881;28;20050;-70
2021/05/20 05:54:44;;;;;;;;;;;;;;;;;;4975697;28;20072;-70
2021/05/20 05:57:11;;;;;;;2.05;0.80;;;;;;;;;;4988906;28;20391;-70
2021/05/20 05:59:37;;;;;;;1.67;1.20;;;;;;;;;;4994412;28;20096;-70
2021/05/20 06:02:04;;;;;;;2.05;1.00;;;;;;;;;;4994459;28;20046;-70
2021/05/20 06:04:31;;;;;;;4.10;1.15;;;;;;;;;;4977250;28;20130;-69
2021/05/20 06:06:58;;;;;;;1.30;0.90;;;;;;;;;;4992925;28;20583;-70
2021/05/20 06:09:24;;;;;;;1.10;0.98;;;;;;;;;;5007373;28;20528;-70
2021/05/20 06:11:51;;;;;;;1.08;0.80;;;;;;;;;;4996616;28;20054;-70
2021/05/20 06:14:18;;;;;;;1.15;0.70;;;;;;;;;;5013916;28;20116;-69
2021/05/20 06:16:44;;;;;;;2.20;0.80;;;;;;;;;;5012957;28;20084;-70
2021/05/20 06:19:14;;;;;;;0.88;0.88;;;;;;;;;;5014000;28;20108;-70
2021/05/20 06:21:40;;;;;;;1.55;1.35;;;;;;;;;;5013991;28;20085;-69
2021/05/20 06:24:08;;;;;;;1.77;0.98;;;;;;;;;;5013484;28;20516;-70
2021/05/20 06:26:34;;;;;;;2.35;0.90;;;;;;;;;;5013450;28;20050;-72
2021/05/20 06:29:04;;;;;;;3.38;1.80;;;;;;;;;;5014450;28;20046;-71
2021/05/20 06:31:30;;;;;;;3.88;1.75;;;;;;;;;;5013463;28;20050;-70
2021/05/20 06:33:57;;;;;;;2.92;1.40;;;;;;;;;;5011230;28;20547;-71
2021/05/20 06:36:25;;;;;;;1.23;0.98;;;;;;;;;;4993772;28;20112;-70
2021/05/20 06:38:52;;;;;;;1.55;0.90;;;;;;;;;;4992056;28;20058;-73
2021/05/20 06:41:20;;;;;;;2.05;0.73;;;;;;;;;;4992044;28;20597;-70
2021/05/20 06:43:46;;;;;;;1.40;0.95;;;;;;;;;;4991702;28;20050;-72
2021/05/20 06:46:13;;;;;;;0.70;0.70;;;;;;;;;;4991763;28;20054;-72
2021/05/20 06:48:40;;;;;;;1.55;0.80;;;;;;;;;;4990563;28;20049;-71
2021/05/20 06:51:06;;;;;;;1.52;0.90;;;;;;;;;;4991422;28;20050;-71
2021/05/20 06:53:36;;;;;;;1.67;0.80;;;;;;;;;;4991331;28;20082;-71
2021/05/20 06:56:05;;;;;;;1.98;0.80;;;;;;;;;;4991209;28;20054;-71
2021/05/20 07:01:16;;;;;;;0.80;0.80;;;;;;;;;;5011176;28;20115;-70
2021/05/20 07:03:43;;;;;;;1.95;0.90;;;;;;;;;;5011149;28;20100;-71
2021/05/20 07:06:11;;;;;;;1.58;0.73;;;;;;;;;;5010466;28;20053;-72
2021/05/20 07:08:38;;;;;;;1.52;1.10;;;;;;;;;;5010081;28;20096;-72
2021/05/20 07:11:06;;;;;;;1.92;1.02;;;;;;;;;;5009416;28;20057;-70
2021/05/20 07:13:32;;;;;;;0.80;0.80;;;;;;;;;;5011105;28;20053;-71
2021/05/20 07:15:59;;;;;;;2.42;0.85;;;;;;;;;;5009566;28;20046;-72
2021/05/20 07:18:25;;;;;;;1.02;0.80;;;;;;;;;;5006235;28;20464;-72
2021/05/20 07:20:52;;;;;;;1.02;0.95;;;;;;;;;;4990102;28;20428;-72
2021/05/20 07:23:20;;;;;;;0.80;0.80;;;;;;;;;;4988947;28;20046;-72
2021/05/20 07:25:46;;;;;;;1.00;0.90;;;;;;;;;;4988793;28;20091;-75
2021/05/20 07:28:13;;;;;;;5.40;1.05;;;;;;;;;;4973256;28;20058;-71
2021/05/20 07:30:40;;;;;;;0.85;0.70;;;;;;;;;;4987814;28;20489;-74
2021/05/20 07:33:07;;;;;;;1.90;1.08;;;;;;;;;;4979199;28;20123;-75
2021/05/20 07:35:33;;;;;;;1.95;0.90;;;;;;;;;;4986141;28;20460;-72
2021/05/20 07:38:00;;;;;;;1.05;0.90;;;;;;;;;;4982297;28;20062;-73
2021/05/20 07:40:27;;;;;;;3.25;0.80;;;;;;;;;;4988125;28;20770;-75
2021/05/20 07:42:53;;;;;;;2.15;0.93;;;;;;;;;;4987059;28;20053;-70
2021/05/20 07:45:21;;;;;;;3.15;1.52;;;;;;;;;;4988422;28;20049;-73
2021/05/20 07:47:49;;;;;;;1.13;0.75;;;;;;;;;;4989030;28;20046;-74
2021/05/20 07:50:16;;;;;;;3.13;1.15;;;;;;;;;;4988961;28;20061;-74
2021/05/20 07:52:43;;;;;;;1.08;0.88;;;;;;;;;;4988936;28;20056;-73
2021/05/20 07:55:10;;;;;;;1.63;0.90;;;;;;;;;;4994798;28;20085;-73
2021/05/20 07:57:37;;;;;;;3.00;1.25;;;;;;;;;;4988735;28;20097;-73
2021/05/20 08:00:06;;;;;;;1.63;0.93;;;;;;;;;;4989017;28;20485;-75
2021/05/20 08:05:09;;;;;;;0.90;0.90;;;;;;;;;;4988271;28;20524;-72
2021/05/20 08:12:48;;;;;;;3.22;0.90;;;;;;;;;;4973870;28;20050;-72
2021/05/20 08:15:15;;;;;;;0.60;0.60;;;;;;;;;;4991903;28;20460;-72
2021/05/20 08:17:41;;;;;;;2.30;0.90;;;;;;;;;;4989745;28;20085;-72
2021/05/20 08:20:08;;;;;;;1.35;0.90;;;;;;;;;;4992098;28;20054;-71
2021/05/20 08:22:37;;;;;;;0.70;0.70;;;;;;;;;;4990552;28;20473;-72
2021/05/20 08:25:06;;;;;;;0.80;0.80;;;;;;;;;;4990971;28;20138;-71
2021/05/20 08:27:33;;;;;;;3.13;0.80;;;;;;;;;;4992002;28;20128;-72
2021/05/20 08:30:00;;;;;;;1.40;0.75;;;;;;;;;;4991725;28;20608;-72
2021/05/20 08:32:27;;;;;;;1.15;0.70;;;;;;;;;;4991718;28;20509;-72
2021/05/20 08:34:53;;;;;;;0.68;0.60;;;;;;;;;;4995442;28;20046;-72
2021/05/20 08:37:20;;;;;;;0.70;0.63;;;;;;;;;;4994954;28;20464;-72
2021/05/20 08:39:47;;;;;;;2.33;1.20;;;;;;;;;;4995718;28;20050;-72
2021/05/20 08:42:13;;;;;;;1.13;0.82;;;;;;;;;;4995730;28;20486;-72
2021/05/20 08:44:44;;;;;;;2.00;0.70;;;;;;;;;;4995856;28;20125;-72
2021/05/20 08:47:11;;;;;;;0.88;0.80;;;;;;;;;;4994243;28;20505;-73
2021/05/20 08:49:39;;;;;;;3.78;0.73;;;;;;;;;;4995578;28;20113;-72
2021/05/20 08:52:06;;;;;;;1.83;0.80;;;;;;;;;;5054237;22;20054;-68
2021/05/20 08:54:46;;;;;;;0.63;0.52;;;;;;;;;;4985436;28;20149;-68
2021/05/20 08:57:12;;;;;;;2.30;0.65;;;;;;;;;;5013863;28;20050;-67
2021/05/20 08:59:39;;;;;;;0.50;0.50;;;;;;;;;;5014104;28;20054;-68
2021/05/20 09:02:06;;;;;;;1.50;0.70;;;;;;;;;;5014919;28;20054;-68
2021/05/20 09:04:33;;;;;;;2.70;0.40;;;;;;;;;;5033647;28;20053;-68
2021/05/20 09:07:05;;;;;;;3.25;0.65;;;;;;;;;;5034606;28;20567;-68
2021/05/20 09:09:37;;;;;;;0.73;0.60;;;;;;;;;;5033277;28;20100;-67
2021/05/20 09:12:04;;;;;;;1.65;0.40;;;;;;;;;;5033481;28;20107;-68
2021/05/20 09:14:33;;;;;;;0.73;0.47;;;;;;;;;;5014586;28;20054;-68
2021/05/20 09:17:19;;;;;;;0.40;0.30;;;;;;;;;;5013110;28;20054;-68
2021/05/20 09:19:54;;;;;;;1.42;0.40;;;;;;;;;;5013576;28;20058;-69
2021/05/20 09:22:21;;;;;;;0.75;0.38;;;;;;;;;;4995049;28;20057;-70
2021/05/20 09:24:57;;;;;;;1.70;0.50;;;;;;;;;;5030776;28;20464;-70
2021/05/20 09:27:45;;;;;;;2.40;0.52;;;;;;;;;;5033545;28;20045;-70
2021/05/20 09:30:18;;;;;;;0.50;0.45;;;;;;;;;;5025702;28;20098;-72
2021/05/20 09:32:55;;;;;;;0.75;0.60;;;;;;;;;;5019457;28;20050;-72
2021/05/20 09:35:23;;;;;;;0.75;0.68;;;;;;;;;;5031327;28;20045;-76
2021/05/20 09:38:08;;;;;;;0.80;0.40;;;;;;;;;;5032325;28;20049;-74
2021/05/20 09:40:37;;;;;;;0.55;0.50;;;;;;;;;;5019399;28;20049;-72
2021/05/20 09:43:14;;;;;;;0.93;0.65;;;;;;;;;;5019996;28;20050;-71
2021/05/20 09:45:40;;;;;;;0.73;0.70;;;;;;;;;;5029523;28;20088;-70
2021/05/20 09:48:08;;;;;;;1.15;0.70;;;;;;;;;;5030825;28;20096;-73
2021/05/20 09:50:40;;;;;;;0.32;0.32;;;;;;;;;;5014524;28;20049;-73
2021/05/20 09:53:08;;;;;;;0.63;0.63;;;;;;;;;;5024383;28;20110;-72
2021/05/20 09:55:35;;;;;;;1.55;0.80;;;;;;;;;;5012383;28;20115;-75
2021/05/20 09:58:09;;;;;;;2.45;0.80;;;;;;;;;;5030818;28;20454;-72
2021/05/20 10:00:38;;;;;;;1.05;0.82;;;;;;;;;;5009497;28;20049;-75
2021/05/20 10:03:10;;;;;;;1.52;0.65;;;;;;;;;;4994901;28;20065;-73
2021/05/20 10:05:39;;;;;;;1.45;0.60;;;;;;;;;;5048047;28;20124;-73
2021/05/20 10:08:09;;;;;;;1.48;0.68;;;;;;;;;;5050951;28;20061;-72
2021/05/20 10:10:47;;;;;;;1.38;0.50;;;;;;;;;;5034442;28;20060;-71
2021/05/20 10:13:27;;;;;;;0.60;0.60;;;;;;;;;;5050183;28;20484;-68
2021/05/20 10:15:55;;;;;;;0.77;0.50;;;;;;;;;;5041660;28;20411;-69
2021/05/20 10:18:28;;;;;;;1.08;0.40;;;;;;;;;;5033695;28;20114;-71
2021/05/20 10:20:58;;;;;;;0.80;0.50;;;;;;;;;;5017273;28;20048;-70
2021/05/20 10:23:25;;;;;;;1.70;0.55;;;;;;;;;;5051271;28;20049;-69
2021/05/20 10:25:53;;;;;;;3.88;0.88;;;;;;;;;;5049859;28;20045;-69
2021/05/20 10:28:20;;;;;;;2.05;0.60;;;;;;;;;;5050908;28;20580;-69
2021/05/20 10:30:50;;;;;;;1.08;0.60;;;;;;;;;;5048097;28;20638;-69
2021/05/20 10:33:17;;;;;;;0.85;0.55;;;;;;;;;;5034385;28;20053;-69
2021/05/20 10:35:47;;;;;;;1.33;0.90;;;;;;;;;;5049670;28;20045;-70
2021/05/20 10:38:34;;;;;;;0.70;0.60;;;;;;;;;;5034142;28;20219;-71
2021/05/20 10:41:20;;;;;;;1.20;0.65;;;;;;;;;;5035431;28;20053;-72
2021/05/20 10:43:50;;;;;;;0.50;0.50;;;;;;;;;;5049072;28;20110;-69
2021/05/20 10:46:18;;;;;;;0.68;0.68;;;;;;;;;;5039668;28;20134;-70
2021/05/20 10:48:55;;;;;;;0.40;0.40;;;;;;;;;;5048039;28;20045;-70
2021/05/20 10:51:24;;;;;;;0.88;0.80;;;;;;;;;;5031467;28;20431;-70
2021/05/20 10:54:13;;;;;;;1.00;0.47;;;;;;;;;;5031401;28;20091;-70
2021/05/20 10:56:40;;;;;;;0.68;0.30;;;;;;;;;;5047638;28;20408;-70
2021/05/20 10:59:32;;;;;;;0.47;0.43;;;;;;;;;;5048528;28;20053;-70
2021/05/20 11:01:58;;;;;;;1.48;0.50;;;;;;;;;;5048624;28;20045;-70
2021/05/20 11:04:36;;;;;;;2.22;0.45;;;;;;;;;;5038025;28;20053;-70
2021/05/20 11:07:03;;;;;;;1.67;0.47;;;;;;;;;;5040397;28;20079;-69
2021/05/20 11:09:50;;;;;;;0.77;0.40;;;;;;;;;;5048353;28;20060;-68
2021/05/20 11:12:19;;;;;;;0.28;0.28;;;;;;;;;;5047701;28;20049;-71
2021/05/20 11:14:47;;;;;;;1.13;0.40;;;;;;;;;;5034733;28;20067;-70
2021/05/20 11:17:36;;;;;;;1.77;0.50;;;;;;;;;;5050449;28;20049;-69
2021/05/20 11:20:25;;;;;;;1.20;0.43;;;;;;;;;;5049851;28;20079;-70
2021/05/20 11:23:33;;;;;;;0.65;0.60;;;;;;;;;;5034381;28;20049;-69
2021/05/20 11:26:08;;;;;;;0.55;0.32;;;;;;;;;;5051503;28;20053;-68
2021/05/20 11:28:43;;;;;;;1.77;0.50;;;;;;;;;;5040434;28;20574;-69
2021/05/20 11:31:10;;;;;;;0.63;0.50;;;;;;;;;;5041049;28;20053;-70
2021/05/20 11:33:51;;;;;;;2.35;0.50;;;;;;;;;;5050499;28;20048;-71
2021/05/20 11:36:18;;;;;;;0.50;0.50;;;;;;;;;;5034641;28;20110;-70
2021/05/20 11:38:56;;;;;;;1.20;0.40;;;;;;;;;;5031488;28;20045;-73
2021/05/20 11:41:23;;;;;;;0.95;0.40;;;;;;;;;;5049280;28;20052;-71
2021/05/20 11:44:12;;;;;;;0.40;0.40;;;;;;;;;;5045253;28;20114;-70
2021/05/20 11:46:40;;;;;;;1.52;0.93;;;;;;;;;;5037606;28;20045;-70
2021/05/20 11:49:18;;;;;;;0.55;0.30;;;;;;;;;;5049068;28;20057;-71
2021/05/20 11:51:50;;;;;;;0.52;0.40;;;;;;;;;;5035220;28;20083;-72
2021/05/20 11:54:18;;;;;;;1.05;0.40;;;;;;;;;;5039140;28;20057;-71
2021/05/20 11:56:49;;;;;;;0.43;0.40;;;;;;;;;;5030149;28;20037;-71
2021/05/20 11:59:17;;;;;;;2.42;0.40;;;;;;;;;;5041337;28;20060;-71
2021/05/20 12:01:44;;;;;;;0.50;0.47;;;;;;;;;;5032695;28;20049;-71
2021/05/20 12:04:11;;;;;;;1.50;0.50;;;;;;;;;;5049649;28;20048;-70
2021/05/20 12:06:38;;;;;;;1.13;0.60;;;;;;;;;;5033698;28;20165;-70
2021/05/20 12:09:13;;;;;;;2.35;0.73;;;;;;;;;;5036648;28;20068;-70
2021/05/20 12:11:40;;;;;;;1.58;0.55;;;;;;;;;;5038107;28;20111;-72
2021/05/20 12:14:21;;;;;;;3.05;1.27;;;;;;;;;;5020599;28;20065;-71
2021/05/20 12:16:59;;;;;;;2.42;0.77;;;;;;;;;;5040950;28;20102;-69
2021/05/20 12:19:27;;;;;;;1.25;0.70;;;;;;;;;;5058036;28;20099;-70
2021/05/20 12:22:04;;;;;;;0.82;0.40;;;;;;;;;;5039966;28;20053;-70
2021/05/20 12:24:32;;;;;;;3.40;0.70;;;;;;;;;;5056707;28;20518;-71
2021/05/20 12:27:07;;;;;;;1.15;0.77;;;;;;;;;;5036049;28;20459;-68
2021/05/20 12:29:35;;;;;;;1.60;0.43;;;;;;;;;;5030119;28;20504;-69
2021/05/20 12:32:22;;;;;;;0.88;0.70;;;;;;;;;;5042755;28;20052;-69
2021/05/20 12:35:17;;;;;;;0.32;0.30;;;;;;;;;;5057800;28;20051;-69
2021/05/20 12:37:49;;;;;;;0.40;0.40;;;;;;;;;;5052963;28;20115;-69
2021/05/20 12:40:19;;;;;;;0.43;0.40;;;;;;;;;;5037841;28;20049;-69
2021/05/20 12:43:20;;;;;;;2.65;0.50;;;;;;;;;;5020482;28;20081;-69
2021/05/20 12:45:51;;;;;;;1.23;0.50;;;;;;;;;;5045348;28;20499;-69
2021/05/20 12:48:24;;;;;;;1.45;0.38;;;;;;;;;;5058038;28;20052;-69
2021/05/20 12:50:51;;;;;;;;;;;;;;;;;;5057702;28;20053;-70
2021/05/20 12:53:29;;;;;;;2.15;0.50;;;;;;;;;;5057813;28;19936;-70
2021/05/20 12:55:58;;;;;;;1.58;0.35;;;;;;;;;;5055422;28;20175;-71
2021/05/20 12:58:25;;;;;;;0.45;0.30;;;;;;;;;;5056731;28;20554;-70
2021/05/20 13:00:59;;;;;;;0.75;0.40;;;;;;;;;;5056429;28;20052;-71
2021/05/20 13:03:43;;;;;;;0.20;0.20;;;;;;;;;;5056800;28;20053;-70
2021/05/20 13:06:09;;;;;;;;;;;;;;;;;;5034173;28;20045;-69
2021/05/20 13:08:40;;;;;;;2.30;0.32;;;;;;;;;;5051493;28;19921;-69
2021/05/20 13:11:22;;;;;;;0.30;0.30;;;;;;;;;;5043011;28;20041;-69
2021/05/20 13:13:51;;;;;;;0.22;0.20;;;;;;;;;;5034740;28;20053;-69
2021/05/20 13:16:33;;;;;;;0.75;0.45;;;;;;;;;;5062973;28;20049;-69
2021/05/20 13:24:47;;;;;;;1.02;0.30;;;;;;;;;;5045253;28;20092;-69
2021/05/20 13:27:14;;;;;;;0.47;0.38;;;;;;;;;;5030980;28;20045;-69
2021/05/20 13:29:45;;;;;;;0.70;0.50;;;;;;;;;;5032332;28;20512;-69
2021/05/20 13:32:20;;;;;;;0.40;0.30;;;;;;;;;;5014778;28;20049;-69
2021/05/20 13:34:48;;;;;;;4.60;0.45;;;;;;;;;;5043502;28;20045;-69
2021/05/20 13:37:14;;;;;;;1.48;0.47;;;;;;;;;;5050211;28;20110;-70
2021/05/20 13:39:42;;;;;;;0.90;0.50;;;;;;;;;;5050549;28;20049;-69
2021/05/20 13:42:09;;;;;;;1.15;0.50;;;;;;;;;;5050658;28;20060;-70
2021/05/20 13:44:45;;;;;;;0.88;0.50;;;;;;;;;;5039763;28;20088;-70
2021/05/20 13:47:12;;;;;;;0.40;0.40;;;;;;;;;;5032061;28;20184;-70
2021/05/20 13:49:45;;;;;;;0.70;0.38;;;;;;;;;;5014639;28;20633;-70
2021/05/20 13:52:17;;;;;;;0.95;0.40;;;;;;;;;;5015243;28;20085;-70
2021/05/20 13:54:49;;;;;;;1.58;0.50;;;;;;;;;;5042254;28;20048;-70
2021/05/20 13:57:16;;;;;;;0.70;0.50;;;;;;;;;;5033482;28;20099;-70
2021/05/20 13:59:44;;;;;;;1.40;0.50;;;;;;;;;;5051788;28;20053;-70
2021/05/20 14:02:23;;;;;;;1.23;0.60;;;;;;;;;;5050522;28;20059;-70
2021/05/20 14:04:50;;;;;;;0.30;0.30;;;;;;;;;;5029153;28;20124;-71
2021/05/20 14:07:17;;;;;;;0.85;0.40;;;;;;;;;;5049808;28;20049;-70
2021/05/20 14:09:47;;;;;;;0.55;0.40;;;;;;;;;;5066553;28;20072;-73
2021/05/20 14:12:17;;;;;;;0.55;0.30;;;;;;;;;;5033178;28;20049;-75
2021/05/20 14:14:46;;;;;;;0.60;0.40;;;;;;;;;;5043115;28;20184;-73
2021/05/20 14:17:14;;;;;;;2.95;0.40;;;;;;;;;;5031709;28;20045;-74
2021/05/20 14:19:49;;;;;;;0.85;0.20;;;;;;;;;;5020274;28;20049;-74
2021/05/20 14:22:19;;;;;;;1.30;0.30;;;;;;;;;;5033267;28;20503;-72
2021/05/20 14:24:46;;;;;;;0.40;0.32;;;;;;;;;;5027170;28;20458;-72
2021/05/20 14:27:16;;;;;;;0.45;0.35;;;;;;;;;;5033726;28;20487;-72
2021/05/20 14:29:44;;;;;;;0.22;0.22;;;;;;;;;;5034175;28;20044;-74
2021/05/20 14:32:11;;;;;;;0.57;0.35;;;;;;;;;;5016776;28;20052;-75
2021/05/20 14:34:42;;;;;;;1.15;0.57;;;;;;;;;;5012595;28;20084;-74
2021/05/20 14:37:11;;;;;;;0.98;0.70;;;;;;;;;;5051191;28;20045;-74
2021/05/20 14:39:39;;;;;;;0.40;0.40;;;;;;;;;;5056729;28;20052;-74
2021/05/20 14:42:07;;;;;;;0.50;0.40;;;;;;;;;;5033089;28;20053;-73
2021/05/20 14:44:34;;;;;;;1.50;0.50;;;;;;;;;;5049897;28;20423;-72
2021/05/20 14:47:01;;;;;;;0.75;0.30;;;;;;;;;;5051003;28;20049;-72
2021/05/20 14:49:38;;;;;;;1.05;0.55;;;;;;;;;;5050147;28;20503;-73
2021/05/20 14:52:11;;;;;;;0.80;0.80;;;;;;;;;;5072017;22;20048;-73
2021/05/20 14:54:43;;;;;;;1.48;0.82;;;;;;;;;;5047236;28;20057;-72
2021/05/20 15:05:29;;;;;;;0.77;0.60;;;;;;;;;;5030508;28;20107;-71
2021/05/20 15:07:58;;;;;;;2.03;0.90;;;;;;;;;;5041599;28;20373;-70
2021/05/20 15:10:29;;;;;;;0.50;0.50;;;;;;;;;;5049460;28;20053;-72
2021/05/20 15:13:01;;;;;;;1.60;0.47;;;;;;;;;;5040647;28;20075;-73
2021/05/20 15:15:33;;;;;;;2.05;0.60;;;;;;;;;;5047991;28;20077;-73
2021/05/20 15:18:02;;;;;;;0.98;0.47;;;;;;;;;;5040427;28;20087;-71
2021/05/20 15:20:30;;;;;;;2.42;0.70;;;;;;;;;;5040734;28;20048;-71